sensor_id;sensor_type;location;lat;lon;timestamp;P1;durP1;ratioP1;P2;durP2;ratioP2
65855;SDS011;52631;42.208;24.656;2023-04-01T00:02:06;15.73;;;8.48;;
65855;SDS011;52631;42.208;24.656;2023-04-01T00:04:32;12.98;;;8.82;;
65855;SDS011;52631;42.208;24.656;2023-04-01T00:06:58;14.10;;;7.72;;
65855;SDS011;52631;42.208;24.656;2023-04-01T00:09:24;12.60;;;7.65;;
65855;SDS011;52631;42.208;24.656;2023-04-01T00:11:50;13.70;;;8.10;;
65855;SDS011;52631;42.208;24.656;2023-04-01T00:14:15;10.43;;;6.70;;
65855;SDS011;52631;42.208;24.656;2023-04-01T00:16:41;16.15;;;6.60;;
65855;SDS011;52631;42.208;24.656;2023-04-01T00:19:06;12.60;;;6.32;;
65855;SDS011;52631;42.208;24.656;2023-04-01T00:21:32;10.57;;;5.22;;
65855;SDS011;52631;42.208;24.656;2023-04-01T00:23:58;8.27;;;5.20;;
65855;SDS011;52631;42.208;24.656;2023-04-01T00:26:24;9.43;;;5.50;;
65855;SDS011;52631;42.208;24.656;2023-04-01T00:28:50;10.00;;;5.53;;
65855;SDS011;52631;42.208;24.656;2023-04-01T00:31:16;7.75;;;4.43;;
65855;SDS011;52631;42.208;24.656;2023-04-01T00:33:41;8.32;;;4.03;;
65855;SDS011;52631;42.208;24.656;2023-04-01T00:36:08;7.55;;;4.03;;
65855;SDS011;52631;42.208;24.656;2023-04-01T00:38:37;9.35;;;4.13;;
65855;SDS011;52631;42.208;24.656;2023-04-01T00:41:03;7.80;;;4.00;;
65855;SDS011;52631;42.208;24.656;2023-04-01T00:43:29;10.45;;;5.00;;
65855;SDS011;52631;42.208;24.656;2023-04-01T00:45:55;9.07;;;4.43;;
65855;SDS011;52631;42.208;24.656;2023-04-01T00:48:25;8.80;;;4.38;;
65855;SDS011;52631;42.208;24.656;2023-04-01T00:50:58;9.00;;;4.78;;
65855;SDS011;52631;42.208;24.656;2023-04-01T00:53:26;9.40;;;5.35;;
65855;SDS011;52631;42.208;24.656;2023-04-01T00:56:04;10.10;;;4.85;;
65855;SDS011;52631;42.208;24.656;2023-04-01T00:58:37;8.82;;;4.60;;
65855;SDS011;52631;42.208;24.656;2023-04-01T01:01:04;7.85;;;4.70;;
65855;SDS011;52631;42.208;24.656;2023-04-01T01:03:31;7.75;;;4.90;;
65855;SDS011;52631;42.208;24.656;2023-04-01T01:11:05;9.55;;;5.72;;
65855;SDS011;52631;42.208;24.656;2023-04-01T01:13:36;9.73;;;5.68;;
65855;SDS011;52631;42.208;24.656;2023-04-01T01:18:53;12.10;;;5.75;;
65855;SDS011;52631;42.208;24.656;2023-04-01T01:37:50;12.25;;;7.10;;
65855;SDS011;52631;42.208;24.656;2023-04-01T01:40:19;10.20;;;6.60;;
65855;SDS011;52631;42.208;24.656;2023-04-01T01:42:50;16.85;;;11.02;;
65855;SDS011;52631;42.208;24.656;2023-04-01T01:45:19;18.48;;;9.07;;
65855;SDS011;52631;42.208;24.656;2023-04-01T01:47:47;15.27;;;7.95;;
65855;SDS011;52631;42.208;24.656;2023-04-01T01:50:14;12.80;;;6.82;;
65855;SDS011;52631;42.208;24.656;2023-04-01T01:52:40;14.50;;;6.95;;
65855;SDS011;52631;42.208;24.656;2023-04-01T01:57:57;12.83;;;7.40;;
65855;SDS011;52631;42.208;24.656;2023-04-01T02:00:25;16.40;;;6.60;;
65855;SDS011;52631;42.208;24.656;2023-04-01T02:02:51;14.15;;;7.97;;
65855;SDS011;52631;42.208;24.656;2023-04-01T02:05:21;11.07;;;6.82;;
65855;SDS011;52631;42.208;24.656;2023-04-01T02:07:57;9.30;;;6.18;;
65855;SDS011;52631;42.208;24.656;2023-04-01T02:10:26;10.23;;;6.50;;
65855;SDS011;52631;42.208;24.656;2023-04-01T02:12:55;14.27;;;7.72;;
65855;SDS011;52631;42.208;24.656;2023-04-01T02:15:22;12.27;;;6.68;;
65855;SDS011;52631;42.208;24.656;2023-04-01T02:17:50;10.80;;;6.68;;
65855;SDS011;52631;42.208;24.656;2023-04-01T02:20:20;9.55;;;6.40;;
65855;SDS011;52631;42.208;24.656;2023-04-01T02:22:48;11.77;;;7.43;;
65855;SDS011;52631;42.208;24.656;2023-04-01T02:25:18;14.18;;;8.10;;
65855;SDS011;52631;42.208;24.656;2023-04-01T02:27:46;10.40;;;7.00;;
65855;SDS011;52631;42.208;24.656;2023-04-01T02:30:12;12.35;;;7.60;;
65855;SDS011;52631;42.208;24.656;2023-04-01T02:32:39;11.07;;;7.90;;
65855;SDS011;52631;42.208;24.656;2023-04-01T02:35:06;13.52;;;8.23;;
65855;SDS011;52631;42.208;24.656;2023-04-01T02:37:33;12.38;;;7.75;;
65855;SDS011;52631;42.208;24.656;2023-04-01T02:39:59;13.65;;;8.10;;
65855;SDS011;52631;42.208;24.656;2023-04-01T02:42:25;15.07;;;7.68;;
65855;SDS011;52631;42.208;24.656;2023-04-01T02:44:51;9.60;;;6.78;;
65855;SDS011;52631;42.208;24.656;2023-04-01T02:47:16;11.68;;;6.90;;
65855;SDS011;52631;42.208;24.656;2023-04-01T02:49:42;9.75;;;6.50;;
65855;SDS011;52631;42.208;24.656;2023-04-01T02:52:07;13.98;;;7.45;;
65855;SDS011;52631;42.208;24.656;2023-04-01T02:54:33;18.23;;;11.73;;
65855;SDS011;52631;42.208;24.656;2023-04-01T02:56:58;12.05;;;7.40;;
65855;SDS011;52631;42.208;24.656;2023-04-01T02:59:23;10.18;;;7.28;;
65855;SDS011;52631;42.208;24.656;2023-04-01T03:01:49;15.07;;;8.48;;
65855;SDS011;52631;42.208;24.656;2023-04-01T03:04:15;15.25;;;8.30;;
65855;SDS011;52631;42.208;24.656;2023-04-01T03:06:40;16.52;;;8.82;;
65855;SDS011;52631;42.208;24.656;2023-04-01T03:09:05;14.32;;;8.80;;
65855;SDS011;52631;42.208;24.656;2023-04-01T03:11:31;13.65;;;7.68;;
65855;SDS011;52631;42.208;24.656;2023-04-01T03:13:56;14.07;;;7.43;;
65855;SDS011;52631;42.208;24.656;2023-04-01T03:16:22;14.25;;;7.47;;
65855;SDS011;52631;42.208;24.656;2023-04-01T03:18:47;15.23;;;8.00;;
65855;SDS011;52631;42.208;24.656;2023-04-01T03:21:19;13.48;;;8.82;;
65855;SDS011;52631;42.208;24.656;2023-04-01T03:23:45;12.70;;;8.70;;
65855;SDS011;52631;42.208;24.656;2023-04-01T03:26:11;14.20;;;8.90;;
65855;SDS011;52631;42.208;24.656;2023-04-01T03:28:36;13.43;;;7.70;;
65855;SDS011;52631;42.208;24.656;2023-04-01T03:31:02;12.48;;;7.47;;
65855;SDS011;52631;42.208;24.656;2023-04-01T03:33:27;10.02;;;6.70;;
65855;SDS011;52631;42.208;24.656;2023-04-01T03:35:53;12.48;;;7.30;;
65855;SDS011;52631;42.208;24.656;2023-04-01T03:38:18;13.52;;;7.60;;
65855;SDS011;52631;42.208;24.656;2023-04-01T03:40:44;13.50;;;8.45;;
65855;SDS011;52631;42.208;24.656;2023-04-01T03:43:10;13.25;;;7.10;;
65855;SDS011;52631;42.208;24.656;2023-04-01T03:45:42;12.52;;;7.43;;
65855;SDS011;52631;42.208;24.656;2023-04-01T03:48:09;13.07;;;7.90;;
65855;SDS011;52631;42.208;24.656;2023-04-01T03:50:34;12.43;;;7.65;;
65855;SDS011;52631;42.208;24.656;2023-04-01T03:53:00;13.43;;;7.10;;
65855;SDS011;52631;42.208;24.656;2023-04-01T03:55:25;13.30;;;7.93;;
65855;SDS011;52631;42.208;24.656;2023-04-01T03:57:51;14.35;;;8.27;;
65855;SDS011;52631;42.208;24.656;2023-04-01T04:00:16;14.63;;;7.88;;
65855;SDS011;52631;42.208;24.656;2023-04-01T04:02:42;12.52;;;7.60;;
65855;SDS011;52631;42.208;24.656;2023-04-01T04:05:08;15.23;;;8.05;;
65855;SDS011;52631;42.208;24.656;2023-04-01T04:07:34;14.10;;;7.93;;
65855;SDS011;52631;42.208;24.656;2023-04-01T04:10:02;12.90;;;7.95;;
65855;SDS011;52631;42.208;24.656;2023-04-01T04:12:28;14.90;;;8.32;;
65855;SDS011;52631;42.208;24.656;2023-04-01T04:14:54;15.40;;;8.20;;
65855;SDS011;52631;42.208;24.656;2023-04-01T04:17:19;19.25;;;8.35;;
65855;SDS011;52631;42.208;24.656;2023-04-01T04:19:45;17.15;;;7.88;;
65855;SDS011;52631;42.208;24.656;2023-04-01T04:22:10;11.98;;;8.27;;
65855;SDS011;52631;42.208;24.656;2023-04-01T04:24:36;14.75;;;8.63;;
65855;SDS011;52631;42.208;24.656;2023-04-01T04:27:02;18.92;;;8.48;;
65855;SDS011;52631;42.208;24.656;2023-04-01T04:29:28;13.15;;;9.20;;
65855;SDS011;52631;42.208;24.656;2023-04-01T04:31:53;19.80;;;9.65;;
65855;SDS011;52631;42.208;24.656;2023-04-01T04:34:19;14.68;;;9.32;;
65855;SDS011;52631;42.208;24.656;2023-04-01T04:36:45;15.60;;;9.00;;
65855;SDS011;52631;42.208;24.656;2023-04-01T04:39:10;16.13;;;8.82;;
65855;SDS011;52631;42.208;24.656;2023-04-01T04:41:39;16.85;;;9.40;;
65855;SDS011;52631;42.208;24.656;2023-04-01T04:44:04;15.30;;;8.95;;
65855;SDS011;52631;42.208;24.656;2023-04-01T04:46:31;14.95;;;9.57;;
65855;SDS011;52631;42.208;24.656;2023-04-01T04:48:57;15.13;;;9.18;;
65855;SDS011;52631;42.208;24.656;2023-04-01T04:51:22;16.55;;;8.98;;
65855;SDS011;52631;42.208;24.656;2023-04-01T04:53:48;16.92;;;9.02;;
65855;SDS011;52631;42.208;24.656;2023-04-01T04:56:17;17.15;;;8.65;;
65855;SDS011;52631;42.208;24.656;2023-04-01T04:58:43;16.48;;;8.38;;
65855;SDS011;52631;42.208;24.656;2023-04-01T05:01:10;16.35;;;9.18;;
65855;SDS011;52631;42.208;24.656;2023-04-01T05:03:37;18.98;;;9.85;;
65855;SDS011;52631;42.208;24.656;2023-04-01T05:06:03;15.98;;;9.65;;
65855;SDS011;52631;42.208;24.656;2023-04-01T05:08:28;14.43;;;9.10;;
65855;SDS011;52631;42.208;24.656;2023-04-01T05:10:54;15.68;;;9.43;;
65855;SDS011;52631;42.208;24.656;2023-04-01T05:13:19;18.15;;;10.13;;
65855;SDS011;52631;42.208;24.656;2023-04-01T05:15:45;19.75;;;10.15;;
65855;SDS011;52631;42.208;24.656;2023-04-01T05:18:11;16.85;;;10.05;;
65855;SDS011;52631;42.208;24.656;2023-04-01T05:20:36;20.00;;;9.77;;
65855;SDS011;52631;42.208;24.656;2023-04-01T05:23:01;15.75;;;8.93;;
65855;SDS011;52631;42.208;24.656;2023-04-01T05:25:27;16.35;;;9.85;;
65855;SDS011;52631;42.208;24.656;2023-04-01T05:27:53;15.43;;;8.82;;
65855;SDS011;52631;42.208;24.656;2023-04-01T05:30:19;17.42;;;9.93;;
65855;SDS011;52631;42.208;24.656;2023-04-01T05:32:44;26.65;;;14.35;;
65855;SDS011;52631;42.208;24.656;2023-04-01T05:35:10;20.55;;;11.68;;
65855;SDS011;52631;42.208;24.656;2023-04-01T05:37:36;18.02;;;11.18;;
65855;SDS011;52631;42.208;24.656;2023-04-01T05:40:03;14.75;;;9.30;;
65855;SDS011;52631;42.208;24.656;2023-04-01T05:42:29;14.10;;;8.73;;
65855;SDS011;52631;42.208;24.656;2023-04-01T05:44:57;12.10;;;8.27;;
65855;SDS011;52631;42.208;24.656;2023-04-01T05:47:22;15.95;;;8.45;;
65855;SDS011;52631;42.208;24.656;2023-04-01T05:49:48;16.50;;;9.25;;
65855;SDS011;52631;42.208;24.656;2023-04-01T05:52:14;18.42;;;9.70;;
65855;SDS011;52631;42.208;24.656;2023-04-01T05:54:40;14.05;;;8.30;;
65855;SDS011;52631;42.208;24.656;2023-04-01T05:57:06;23.35;;;9.38;;
65855;SDS011;52631;42.208;24.656;2023-04-01T05:59:32;16.42;;;9.13;;
65855;SDS011;52631;42.208;24.656;2023-04-01T06:01:57;17.75;;;9.63;;
65855;SDS011;52631;42.208;24.656;2023-04-01T06:04:23;14.40;;;9.38;;
65855;SDS011;52631;42.208;24.656;2023-04-01T06:06:50;14.35;;;9.68;;
65855;SDS011;52631;42.208;24.656;2023-04-01T06:09:22;16.10;;;8.38;;
65855;SDS011;52631;42.208;24.656;2023-04-01T06:20:11;13.50;;;8.50;;
65855;SDS011;52631;42.208;24.656;2023-04-01T06:23:14;13.55;;;9.23;;
65855;SDS011;52631;42.208;24.656;2023-04-01T06:30:58;17.13;;;8.90;;
65855;SDS011;52631;42.208;24.656;2023-04-01T06:36:36;12.60;;;7.72;;
65855;SDS011;52631;42.208;24.656;2023-04-01T06:41:51;9.85;;;5.93;;
65855;SDS011;52631;42.208;24.656;2023-04-01T06:50:07;12.40;;;6.65;;
65855;SDS011;52631;42.208;24.656;2023-04-01T06:57:49;14.13;;;8.18;;
65855;SDS011;52631;42.208;24.656;2023-04-01T07:00:36;16.33;;;8.35;;
65855;SDS011;52631;42.208;24.656;2023-04-01T07:03:14;12.90;;;7.13;;
65855;SDS011;52631;42.208;24.656;2023-04-01T07:05:54;21.73;;;12.55;;
65855;SDS011;52631;42.208;24.656;2023-04-01T07:08:23;15.10;;;8.98;;
65855;SDS011;52631;42.208;24.656;2023-04-01T07:10:58;14.77;;;8.57;;
65855;SDS011;52631;42.208;24.656;2023-04-01T07:16:41;10.88;;;7.22;;
65855;SDS011;52631;42.208;24.656;2023-04-01T07:22:00;12.40;;;7.25;;
65855;SDS011;52631;42.208;24.656;2023-04-01T07:24:33;10.85;;;6.18;;
65855;SDS011;52631;42.208;24.656;2023-04-01T07:27:00;8.60;;;5.70;;
65855;SDS011;52631;42.208;24.656;2023-04-01T07:29:26;11.00;;;6.80;;
65855;SDS011;52631;42.208;24.656;2023-04-01T07:48:30;11.23;;;6.20;;
65855;SDS011;52631;42.208;24.656;2023-04-01T08:07:24;12.82;;;5.90;;
65855;SDS011;52631;42.208;24.656;2023-04-01T08:17:58;9.27;;;5.63;;
65855;SDS011;52631;42.208;24.656;2023-04-01T08:23:18;12.13;;;6.43;;
65855;SDS011;52631;42.208;24.656;2023-04-01T08:25:48;10.90;;;6.13;;
65855;SDS011;52631;42.208;24.656;2023-04-01T08:28:29;10.48;;;6.05;;
65855;SDS011;52631;42.208;24.656;2023-04-01T08:34:08;11.98;;;6.50;;
65855;SDS011;52631;42.208;24.656;2023-04-01T08:36:45;10.57;;;5.13;;
65855;SDS011;52631;42.208;24.656;2023-04-01T08:39:18;11.68;;;5.28;;
65855;SDS011;52631;42.208;24.656;2023-04-01T09:16:53;10.90;;;6.18;;
65855;SDS011;52631;42.208;24.656;2023-04-01T09:19:59;8.98;;;5.35;;
65855;SDS011;52631;42.208;24.656;2023-04-01T09:28:01;11.38;;;6.25;;
65855;SDS011;52631;42.208;24.656;2023-04-01T09:33:52;10.27;;;5.72;;
65855;SDS011;52631;42.208;24.656;2023-04-01T09:52:15;8.90;;;6.22;;
65855;SDS011;52631;42.208;24.656;2023-04-01T09:54:55;9.23;;;6.05;;
65855;SDS011;52631;42.208;24.656;2023-04-01T10:23:02;9.20;;;5.80;;
65855;SDS011;52631;42.208;24.656;2023-04-01T10:46:28;8.73;;;5.50;;
65855;SDS011;52631;42.208;24.656;2023-04-01T11:12:06;9.63;;;5.10;;
65855;SDS011;52631;42.208;24.656;2023-04-01T11:28:44;10.68;;;5.05;;
65855;SDS011;52631;42.208;24.656;2023-04-01T11:31:42;10.25;;;5.20;;
65855;SDS011;52631;42.208;24.656;2023-04-01T11:44:49;10.88;;;7.53;;
65855;SDS011;52631;42.208;24.656;2023-04-01T11:50:31;8.25;;;4.43;;
65855;SDS011;52631;42.208;24.656;2023-04-01T11:55:58;8.02;;;4.00;;
65855;SDS011;52631;42.208;24.656;2023-04-01T11:59:08;6.60;;;4.05;;
65855;SDS011;52631;42.208;24.656;2023-04-01T12:10:15;7.57;;;3.92;;
65855;SDS011;52631;42.208;24.656;2023-04-01T12:13:31;9.38;;;4.00;;
65855;SDS011;52631;42.208;24.656;2023-04-01T12:18:40;12.10;;;4.65;;
65855;SDS011;52631;42.208;24.656;2023-04-01T12:21:23;8.48;;;4.30;;
65855;SDS011;52631;42.208;24.656;2023-04-01T12:36:50;8.32;;;4.50;;
65855;SDS011;52631;42.208;24.656;2023-04-01T12:45:27;9.93;;;4.37;;
65855;SDS011;52631;42.208;24.656;2023-04-01T12:48:34;12.38;;;4.60;;
65855;SDS011;52631;42.208;24.656;2023-04-01T12:59:37;11.88;;;6.95;;
65855;SDS011;52631;42.208;24.656;2023-04-01T13:02:36;14.35;;;7.55;;
65855;SDS011;52631;42.208;24.656;2023-04-01T13:13:39;14.30;;;5.47;;
65855;SDS011;52631;42.208;24.656;2023-04-01T13:19:17;11.85;;;6.15;;
65855;SDS011;52631;42.208;24.656;2023-04-01T13:21:58;10.38;;;5.78;;
65855;SDS011;52631;42.208;24.656;2023-04-01T13:33:12;17.90;;;8.70;;
65855;SDS011;52631;42.208;24.656;2023-04-01T13:49:32;9.80;;;4.45;;
65855;SDS011;52631;42.208;24.656;2023-04-01T14:00:59;7.95;;;3.65;;
65855;SDS011;52631;42.208;24.656;2023-04-01T14:23:55;6.07;;;3.17;;
65855;SDS011;52631;42.208;24.656;2023-04-01T14:29:24;7.50;;;3.10;;
65855;SDS011;52631;42.208;24.656;2023-04-01T14:34:55;4.85;;;2.75;;
65855;SDS011;52631;42.208;24.656;2023-04-01T14:43:31;7.70;;;3.28;;
65855;SDS011;52631;42.208;24.656;2023-04-01T14:46:50;4.35;;;2.63;;
65855;SDS011;52631;42.208;24.656;2023-04-01T14:49:02;5.07;;;2.72;;
65855;SDS011;52631;42.208;24.656;2023-04-01T14:51:33;5.03;;;2.50;;
65855;SDS011;52631;42.208;24.656;2023-04-01T14:56:38;7.20;;;3.08;;
65855;SDS011;52631;42.208;24.656;2023-04-01T14:59:09;5.20;;;2.80;;
65855;SDS011;52631;42.208;24.656;2023-04-01T15:01:50;7.70;;;2.85;;
65855;SDS011;52631;42.208;24.656;2023-04-01T15:04:43;6.50;;;3.45;;
65855;SDS011;52631;42.208;24.656;2023-04-01T15:23:56;5.95;;;3.60;;
65855;SDS011;52631;42.208;24.656;2023-04-01T15:35:46;9.60;;;4.72;;
65855;SDS011;52631;42.208;24.656;2023-04-01T15:38:37;7.18;;;4.10;;
65855;SDS011;52631;42.208;24.656;2023-04-01T15:41:12;10.60;;;6.45;;
65855;SDS011;52631;42.208;24.656;2023-04-01T15:43:57;8.25;;;4.57;;
65855;SDS011;52631;42.208;24.656;2023-04-01T15:46:43;6.82;;;4.57;;
65855;SDS011;52631;42.208;24.656;2023-04-01T15:51:44;12.98;;;6.50;;
65855;SDS011;52631;42.208;24.656;2023-04-01T15:54:25;14.02;;;10.30;;
65855;SDS011;52631;42.208;24.656;2023-04-01T16:02:17;7.68;;;4.22;;
65855;SDS011;52631;42.208;24.656;2023-04-01T16:04:50;7.88;;;5.10;;
65855;SDS011;52631;42.208;24.656;2023-04-01T16:26:08;9.52;;;4.78;;
65855;SDS011;52631;42.208;24.656;2023-04-01T16:31:29;11.93;;;5.97;;
65855;SDS011;52631;42.208;24.656;2023-04-01T16:34:17;9.88;;;5.07;;
65855;SDS011;52631;42.208;24.656;2023-04-01T16:37:03;8.52;;;5.28;;
65855;SDS011;52631;42.208;24.656;2023-04-01T16:39:36;8.32;;;4.78;;
65855;SDS011;52631;42.208;24.656;2023-04-01T16:48:14;7.10;;;3.13;;
65855;SDS011;52631;42.208;24.656;2023-04-01T16:53:19;4.90;;;3.03;;
65855;SDS011;52631;42.208;24.656;2023-04-01T16:55:56;6.97;;;4.55;;
65855;SDS011;52631;42.208;24.656;2023-04-01T16:58:43;8.65;;;3.80;;
65855;SDS011;52631;42.208;24.656;2023-04-01T17:01:27;15.93;;;6.70;;
65855;SDS011;52631;42.208;24.656;2023-04-01T17:04:00;5.00;;;2.95;;
65855;SDS011;52631;42.208;24.656;2023-04-01T17:06:36;9.60;;;4.28;;
65855;SDS011;52631;42.208;24.656;2023-04-01T17:09:20;7.18;;;3.53;;
65855;SDS011;52631;42.208;24.656;2023-04-01T17:20:35;7.57;;;5.03;;
65855;SDS011;52631;42.208;24.656;2023-04-01T17:33:55;11.55;;;6.05;;
65855;SDS011;52631;42.208;24.656;2023-04-01T17:47:31;3.55;;;1.23;;
65855;SDS011;52631;42.208;24.656;2023-04-01T17:52:56;1.15;;;0.77;;
65855;SDS011;52631;42.208;24.656;2023-04-01T18:00:56;1.08;;;0.60;;
65855;SDS011;52631;42.208;24.656;2023-04-01T18:06:21;0.98;;;0.60;;
65855;SDS011;52631;42.208;24.656;2023-04-01T18:08:56;0.68;;;0.52;;
65855;SDS011;52631;42.208;24.656;2023-04-01T18:11:29;1.25;;;0.60;;
65855;SDS011;52631;42.208;24.656;2023-04-01T18:16:51;1.92;;;1.05;;
65855;SDS011;52631;42.208;24.656;2023-04-01T18:22:21;3.65;;;1.63;;
65855;SDS011;52631;42.208;24.656;2023-04-01T18:27:43;3.78;;;1.73;;
65855;SDS011;52631;42.208;24.656;2023-04-01T18:30:17;3.95;;;2.13;;
65855;SDS011;52631;42.208;24.656;2023-04-01T18:33:00;5.32;;;2.53;;
65855;SDS011;52631;42.208;24.656;2023-04-01T18:38:17;3.63;;;1.50;;
65855;SDS011;52631;42.208;24.656;2023-04-01T18:40:50;2.17;;;0.85;;
65855;SDS011;52631;42.208;24.656;2023-04-01T18:46:45;3.38;;;1.27;;
65855;SDS011;52631;42.208;24.656;2023-04-01T18:49:33;2.40;;;1.30;;
65855;SDS011;52631;42.208;24.656;2023-04-01T19:00:14;2.78;;;1.30;;
65855;SDS011;52631;42.208;24.656;2023-04-01T19:02:51;3.30;;;1.40;;
65855;SDS011;52631;42.208;24.656;2023-04-01T19:05:24;2.92;;;1.92;;
65855;SDS011;52631;42.208;24.656;2023-04-01T19:08:12;3.95;;;1.48;;
65855;SDS011;52631;42.208;24.656;2023-04-01T19:19:01;2.97;;;1.42;;
65855;SDS011;52631;42.208;24.656;2023-04-01T19:30:21;8.73;;;3.80;;
65855;SDS011;52631;42.208;24.656;2023-04-01T19:41:18;5.22;;;2.45;;
65855;SDS011;52631;42.208;24.656;2023-04-01T19:44:04;6.22;;;2.40;;
65855;SDS011;52631;42.208;24.656;2023-04-01T19:49:16;4.28;;;2.33;;
65855;SDS011;52631;42.208;24.656;2023-04-01T19:59:49;3.05;;;1.63;;
65855;SDS011;52631;42.208;24.656;2023-04-01T20:05:49;5.80;;;2.00;;
65855;SDS011;52631;42.208;24.656;2023-04-01T20:19:38;3.45;;;1.88;;
65855;SDS011;52631;42.208;24.656;2023-04-01T20:22:24;2.95;;;1.77;;
65855;SDS011;52631;42.208;24.656;2023-04-01T20:25:17;2.38;;;1.63;;
65855;SDS011;52631;42.208;24.656;2023-04-01T20:46:22;2.63;;;1.50;;
65855;SDS011;52631;42.208;24.656;2023-04-01T20:51:25;3.35;;;2.00;;
65855;SDS011;52631;42.208;24.656;2023-04-01T20:59:22;3.75;;;2.25;;
65855;SDS011;52631;42.208;24.656;2023-04-01T21:12:51;3.25;;;2.00;;
65855;SDS011;52631;42.208;24.656;2023-04-01T21:31:18;3.95;;;2.25;;
65855;SDS011;52631;42.208;24.656;2023-04-01T21:50:14;4.05;;;2.50;;
65855;SDS011;52631;42.208;24.656;2023-04-01T21:53:01;3.75;;;2.20;;
65855;SDS011;52631;42.208;24.656;2023-04-01T22:04:52;4.15;;;2.58;;
65855;SDS011;52631;42.208;24.656;2023-04-01T22:07:25;4.30;;;2.60;;
65855;SDS011;52631;42.208;24.656;2023-04-01T22:10:15;4.60;;;2.40;;
65855;SDS011;52631;42.208;24.656;2023-04-01T22:29:07;5.07;;;2.97;;
65855;SDS011;52631;42.208;24.656;2023-04-01T22:31:41;4.20;;;2.80;;
65855;SDS011;52631;42.208;24.656;2023-04-01T22:39:36;4.45;;;2.88;;
65855;SDS011;52631;42.208;24.656;2023-04-01T22:42:34;4.82;;;3.13;;
65855;SDS011;52631;42.208;24.656;2023-04-01T22:55:57;4.93;;;3.05;;
65855;SDS011;52631;42.208;24.656;2023-04-01T22:58:28;5.30;;;3.23;;
65855;SDS011;52631;42.208;24.656;2023-04-01T23:01:15;3.70;;;2.60;;
65855;SDS011;52631;42.208;24.656;2023-04-01T23:06:24;3.28;;;1.80;;
65855;SDS011;52631;42.208;24.656;2023-04-01T23:08:57;4.65;;;2.25;;
65855;SDS011;52631;42.208;24.656;2023-04-01T23:14:28;4.13;;;2.78;;
65855;SDS011;52631;42.208;24.656;2023-04-01T23:35:53;3.28;;;1.90;;
65855;SDS011;52631;42.208;24.656;2023-04-01T23:38:29;2.65;;;1.60;;
65855;SDS011;52631;42.208;24.656;2023-04-01T23:40:59;2.15;;;1.30;;
65855;SDS011;52631;42.208;24.656;2023-04-01T23:43:26;2.58;;;1.55;;
65855;SDS011;52631;42.208;24.656;2023-04-01T23:45:55;16.05;;;5.95;;
65855;SDS011;52631;42.208;24.656;2023-04-01T23:48:24;3.33;;;1.85;;
65855;SDS011;52631;42.208;24.656;2023-04-01T23:54:19;3.35;;;1.80;;
65855;SDS011;52631;42.208;24.656;2023-04-01T23:56:54;2.97;;;1.80;;
